createdAt,value
2023-02-14T00:00:32.305Z,2.00
2023-02-14T00:06:35.472Z,1.80
2023-02-14T00:12:37.406Z,1.70
2023-02-14T00:18:57.940Z,1.80
2023-02-14T00:24:59.828Z,1.60
2023-02-14T00:31:02.506Z,1.60
2023-02-14T00:37:04.798Z,1.70
2023-02-14T00:43:06.670Z,1.50
2023-02-14T00:49:08.735Z,1.60
2023-02-14T00:55:10.602Z,1.30
2023-02-14T01:01:14.062Z,1.50
2023-02-14T01:07:16.014Z,1.30
2023-02-14T01:13:19.195Z,1.30
2023-02-14T01:19:21.085Z,1.20
2023-02-14T01:25:22.976Z,1.10
2023-02-14T01:31:28.819Z,1.10
2023-02-14T01:37:30.978Z,1.00
2023-02-14T01:44:00.290Z,1.10
2023-02-14T01:50:24.412Z,1.00
2023-02-14T01:56:35.393Z,1.00
2023-02-14T02:02:37.394Z,0.80
2023-02-14T02:08:50.969Z,0.70
2023-02-14T02:14:56.671Z,0.80
2023-02-14T02:21:52.439Z,0.80
2023-02-14T02:28:32.447Z,0.70
2023-02-14T02:35:34.418Z,0.90
2023-02-14T02:42:00.518Z,0.70
2023-02-14T02:48:20.028Z,0.60
2023-02-14T02:54:43.000Z,0.40
2023-02-14T03:00:46.149Z,0.30
2023-02-14T03:06:49.080Z,0.50
2023-02-14T03:13:06.009Z,0.40
2023-02-14T03:19:48.716Z,0.40
2023-02-14T03:25:59.104Z,0.40
2023-02-14T03:32:25.001Z,0.40
2023-02-14T03:38:39.804Z,0.50
2023-02-14T03:44:44.206Z,0.50
2023-02-14T03:50:48.547Z,0.70
2023-02-14T03:56:56.987Z,0.80
2023-02-14T04:03:08.481Z,0.90
2023-02-14T04:09:10.392Z,0.90
2023-02-14T04:15:13.514Z,0.90
2023-02-14T04:21:16.397Z,0.90
2023-02-14T04:27:18.281Z,0.70
2023-02-14T04:33:20.169Z,0.60
2023-02-14T04:39:22.079Z,0.50
2023-02-14T04:45:23.978Z,0.60
2023-02-14T04:51:27.590Z,0.80
2023-02-14T04:57:29.620Z,0.90
2023-02-14T05:03:31.489Z,0.80
2023-02-14T05:09:33.471Z,1.00
2023-02-14T05:15:38.111Z,1.10
2023-02-14T05:21:40.557Z,0.90
2023-02-14T05:27:42.518Z,1.10
2023-02-14T05:33:44.427Z,1.10
2023-02-14T05:39:46.299Z,0.90
2023-02-14T05:45:48.974Z,1.00
2023-02-14T05:51:50.917Z,1.00
2023-02-14T05:57:52.814Z,0.90
2023-02-14T06:03:54.693Z,0.80
2023-02-14T06:09:57.162Z,0.60
2023-02-14T06:15:59.065Z,0.60
2023-02-14T06:22:01.024Z,0.50
2023-02-14T06:28:02.943Z,0.40
2023-02-14T06:34:04.853Z,0.70
2023-02-14T06:40:08.836Z,0.80
2023-02-14T06:46:11.596Z,0.80
2023-02-14T06:52:13.649Z,0.60
2023-02-14T06:58:15.770Z,0.70
2023-02-14T07:04:17.877Z,0.50
2023-02-14T07:10:20.261Z,0.50
2023-02-14T07:16:22.133Z,0.70
2023-02-14T07:22:24.060Z,0.80
2023-02-14T07:28:25.980Z,0.90
2023-02-14T07:34:27.914Z,0.80
2023-02-14T07:40:30.027Z,0.90
2023-02-14T07:46:32.094Z,1.00
2023-02-14T07:52:34.032Z,1.10
2023-02-14T07:58:35.968Z,1.10
2023-02-14T08:04:37.900Z,1.20
2023-02-14T08:10:39.798Z,1.10
2023-02-14T08:16:41.742Z,1.20
2023-02-14T08:22:43.623Z,1.40
2023-02-14T08:28:45.572Z,1.30
2023-02-14T08:34:48.038Z,1.70
2023-02-14T08:40:49.932Z,1.90
2023-02-14T08:46:51.948Z,2.00
2023-02-14T08:52:53.890Z,2.10
2023-02-14T08:58:55.859Z,2.10
2023-02-14T09:04:57.794Z,2.20
2023-02-14T09:11:00.118Z,2.30
2023-02-14T09:17:05.320Z,2.40
2023-02-14T09:23:07.217Z,2.60
2023-02-14T09:29:11.164Z,2.60
2023-02-14T09:35:13.064Z,2.60
2023-02-14T09:41:59.915Z,2.70
2023-02-14T09:48:28.213Z,3.20
2023-02-14T09:54:33.337Z,3.60
2023-02-14T10:00:52.957Z,3.70
2023-02-14T10:07:56.078Z,3.90
2023-02-14T10:14:20.953Z,3.90
2023-02-14T10:20:37.481Z,4.10
2023-02-14T10:26:41.322Z,4.30
2023-02-14T10:32:48.541Z,4.50
2023-02-14T10:39:08.537Z,4.60
2023-02-14T10:45:22.988Z,4.70
2023-02-14T10:51:46.875Z,4.70
2023-02-14T10:57:55.486Z,4.70
2023-02-14T11:04:08.484Z,4.90
2023-02-14T11:10:14.631Z,5.00
2023-02-14T11:16:33.441Z,5.50
2023-02-14T11:22:35.753Z,5.60
2023-02-14T11:29:15.164Z,6.00
2023-02-14T11:35:33.661Z,6.30
2023-02-14T11:41:56.174Z,6.50
2023-02-14T11:48:36.776Z,6.60
2023-02-14T11:54:41.740Z,7.30
2023-02-14T12:00:53.412Z,8.30
2023-02-14T12:06:55.966Z,8.80
2023-02-14T12:13:09.722Z,8.90
2023-02-14T12:19:19.968Z,8.60
2023-02-14T12:25:32.757Z,8.40
2023-02-14T12:31:34.710Z,8.40
2023-02-14T12:37:50.836Z,8.60
2023-02-14T12:44:27.786Z,9.10
2023-02-14T12:51:00.093Z,9.50
2023-02-14T12:57:35.384Z,10.10
2023-02-14T13:03:54.930Z,10.70
2023-02-14T13:10:26.026Z,11.00
2023-02-14T13:16:55.232Z,11.10
2023-02-14T13:23:05.128Z,10.80
2023-02-14T13:29:14.630Z,11.00
2023-02-14T13:35:21.606Z,11.50
2023-02-14T13:41:24.883Z,11.50
2023-02-14T13:47:27.280Z,11.80
2023-02-14T13:53:45.202Z,12.50
2023-02-14T13:59:47.116Z,13.70
2023-02-14T14:05:57.201Z,16.30
2023-02-14T14:11:59.624Z,16.90
2023-02-14T14:18:13.580Z,15.80
2023-02-14T14:24:34.802Z,14.30
2023-02-14T14:30:44.437Z,13.60
2023-02-14T14:36:47.373Z,12.80
2023-02-14T14:42:49.899Z,11.90
2023-02-14T14:48:55.036Z,11.60
2023-02-14T14:54:58.291Z,11.10
2023-02-14T15:01:00.297Z,11.10
2023-02-14T15:07:33.960Z,11.30
2023-02-14T15:13:54.962Z,11.00
2023-02-14T15:20:19.185Z,10.70
2023-02-14T15:26:34.412Z,10.70
2023-02-14T15:32:38.228Z,10.70
2023-02-14T15:38:41.747Z,10.50
2023-02-14T15:44:43.838Z,10.20
2023-02-14T15:50:55.954Z,9.90
2023-02-14T15:56:58.814Z,9.80
2023-02-14T16:03:06.316Z,9.50
2023-02-14T16:09:26.310Z,9.20
2023-02-14T16:15:35.169Z,8.70
2023-02-14T16:21:37.136Z,8.10
2023-02-14T16:27:39.108Z,7.70
2023-02-14T16:33:41.496Z,7.30
2023-02-14T16:39:43.385Z,7.10
2023-02-14T16:45:45.580Z,6.70
2023-02-14T16:51:47.919Z,6.50
2023-02-14T16:57:53.031Z,6.30
2023-02-14T17:03:55.607Z,6.10
2023-02-14T17:10:07.663Z,6.00
2023-02-14T17:16:11.918Z,5.90
2023-02-14T17:22:15.050Z,5.80
2023-02-14T17:28:16.992Z,5.70
2023-02-14T17:34:18.867Z,5.60
2023-02-14T17:40:21.057Z,5.50
2023-02-14T17:46:23.042Z,5.60
2023-02-14T17:52:25.559Z,5.60
2023-02-14T17:58:27.473Z,5.50
2023-02-14T18:04:34.814Z,5.20
2023-02-14T18:10:37.953Z,5.10
2023-02-14T18:16:40.673Z,5.00
2023-02-14T18:22:42.700Z,4.90
2023-02-14T18:28:44.880Z,4.80
2023-02-14T18:34:46.789Z,4.90
2023-02-14T18:40:48.734Z,4.90
2023-02-14T18:46:50.635Z,4.80
2023-02-14T18:52:52.514Z,4.70
2023-02-14T18:59:01.234Z,4.50
2023-02-14T19:05:04.281Z,4.50
2023-02-14T19:11:26.049Z,4.60
2023-02-14T19:17:28.370Z,4.50
2023-02-14T19:23:30.296Z,4.40
2023-02-14T19:29:32.243Z,4.30
2023-02-14T19:35:34.191Z,4.10
2023-02-14T19:41:36.098Z,3.90
2023-02-14T19:47:47.220Z,3.80
2023-02-14T19:53:50.132Z,3.80
2023-02-14T19:59:52.026Z,3.60
2023-02-14T20:05:55.061Z,3.60
2023-02-14T20:11:58.524Z,3.60
2023-02-14T20:18:01.338Z,3.40
2023-02-14T20:24:04.582Z,3.50
2023-02-14T20:30:07.633Z,3.40
2023-02-14T20:36:10.008Z,3.30
2023-02-14T20:42:12.034Z,3.40
2023-02-14T20:48:13.986Z,3.20
2023-02-14T20:54:18.172Z,3.40
2023-02-14T21:00:20.397Z,3.30
2023-02-14T21:06:25.761Z,3.30
2023-02-14T21:12:27.768Z,3.50
2023-02-14T21:18:30.659Z,3.40
2023-02-14T21:24:32.639Z,3.20
2023-02-14T21:30:34.519Z,3.30
2023-02-14T21:36:36.616Z,3.10
2023-02-14T21:42:38.524Z,3.00
2023-02-14T21:48:59.300Z,3.10
2023-02-14T21:55:01.194Z,2.90
2023-02-14T22:01:03.216Z,3.10
2023-02-14T22:07:05.597Z,2.80
2023-02-14T22:13:07.527Z,3.00
2023-02-14T22:19:15.534Z,2.60
2023-02-14T22:25:17.580Z,2.50
2023-02-14T22:31:20.063Z,2.40
2023-02-14T22:37:22.048Z,2.20
2023-02-14T22:43:23.965Z,2.20
2023-02-14T22:49:25.889Z,1.90
2023-02-14T22:55:28.271Z,2.20
2023-02-14T23:01:31.164Z,2.30
2023-02-14T23:07:33.074Z,2.00
2023-02-14T23:13:54.514Z,1.90
2023-02-14T23:20:14.901Z,1.80
2023-02-14T23:26:20.290Z,2.10
2023-02-14T23:32:22.251Z,1.80
2023-02-14T23:38:24.170Z,2.10
2023-02-14T23:44:28.240Z,1.80
2023-02-14T23:50:30.159Z,1.80
2023-02-14T23:56:32.246Z,1.80
